Time;durP1;ratioP1;P1;durP2;ratioP2;P2;SDS_P1;SDS_P2;PMS_P1;PMS_P2;Temp;Humidity;BMP_temperature;BMP_pressure;BME280_temperature;BME280_humidity;BME280_pressure;Samples;Min_cycle;Max_cycle;Signal;HPM_P1;HPM_P2
2022/10/12 00:01:27;;;;;;;8.10;5.05;;;;;;;8.49;42.77;102112.13;5089341;28;20476;-80
2022/10/12 00:03:55;;;;;;;7.75;5.10;;;;;;;8.48;42.74;102109.47;5088223;28;20048;-80
2022/10/12 00:06:24;;;;;;;7.43;5.03;;;;;;;8.47;42.55;102115.88;5070922;28;20041;-80
2022/10/12 00:08:54;;;;;;;8.95;5.50;;;;;;;8.47;42.92;102111.31;5070754;28;20082;-79
2022/10/12 00:11:24;;;;;;;7.72;4.90;;;;;;;8.44;42.97;102119.66;5073660;28;20032;-80
2022/10/12 00:13:53;;;;;;;9.73;5.10;;;;;;;8.41;42.61;102121.72;5072641;28;20108;-80
2022/10/12 00:16:23;;;;;;;8.63;5.10;;;;;;;8.40;43.03;102119.94;5069974;28;20119;-80
2022/10/12 00:18:52;;;;;;;9.55;4.90;;;;;;;8.38;42.73;102120.03;5077925;28;20032;-80
2022/10/12 00:21:20;;;;;;;7.88;5.32;;;;;;;8.34;42.93;102108.41;5094053;28;20044;-80
2022/10/12 00:23:49;;;;;;;9.13;4.68;;;;;;;8.32;42.90;102115.81;5077445;28;20044;-79
2022/10/12 00:26:20;;;;;;;8.30;4.60;;;;;;;8.32;42.93;102113.09;5057284;27;20040;-80
2022/10/12 00:28:55;;;;;;;8.10;4.45;;;;;;;8.27;43.37;102109.75;5077945;28;20045;-79
2022/10/12 00:31:24;;;;;;;7.20;4.28;;;;;;;8.25;42.73;102108.97;5069743;28;20041;-80
2022/10/12 00:33:52;;;;;;;8.00;4.70;;;;;;;8.23;42.96;102116.34;5069168;28;20032;-80
2022/10/12 00:36:22;;;;;;;6.63;4.32;;;;;;;8.23;43.23;102110.03;5085835;28;20037;-80
2022/10/12 00:38:52;;;;;;;6.35;3.85;;;;;;;8.21;43.13;102112.84;5081656;28;20070;-80
2022/10/12 00:41:24;;;;;;;7.50;4.20;;;;;;;8.20;43.31;102105.63;5084506;28;20040;-81
2022/10/12 00:43:53;;;;;;;8.38;3.78;;;;;;;8.17;43.29;102105.81;5086723;28;20129;-80
2022/10/12 00:46:32;;;;;;;5.70;3.58;;;;;;;8.20;43.51;102107.47;5072971;27;20051;-80
2022/10/12 00:49:10;;;;;;;7.05;3.72;;;;;;;8.18;43.29;102112.13;5076746;28;20040;-80
2022/10/12 00:51:41;;;;;;;6.68;3.90;;;;;;;8.17;43.45;102102.22;5068483;28;20423;-81
2022/10/12 00:54:14;;;;;;;7.10;3.33;;;;;;;8.15;43.20;102113.19;5072163;28;20045;-81
2022/10/12 00:56:44;;;;;;;;;;;;;;;7.88;44.07;102106.56;5080095;28;20388;-80
2022/10/12 00:59:16;;;;;;;5.82;3.35;;;;;;;8.08;43.41;102100.84;5069667;28;19969;-81
2022/10/12 01:01:44;;;;;;;6.45;3.45;;;;;;;8.06;43.41;102110.97;5066527;28;20052;-81
2022/10/12 01:04:12;;;;;;;5.38;3.20;;;;;;;8.08;43.22;102106.31;5074227;28;20052;-80
2022/10/12 01:06:41;;;;;;;7.28;3.30;;;;;;;8.06;43.21;102112.81;5096608;27;20555;-81
2022/10/12 01:09:11;;;;;;;6.57;3.33;;;;;;;8.05;43.28;102105.59;5075644;28;20466;-80
2022/10/12 01:11:39;;;;;;;5.65;3.35;;;;;;;8.03;43.42;102102.06;5066999;28;20388;-80
2022/10/12 01:14:08;;;;;;;5.55;3.50;;;;;;;8.03;43.29;102104.78;5066336;28;20651;-82
2022/10/12 01:16:42;;;;;;;4.88;3.30;;;;;;;8.03;43.36;102102.06;5066057;28;20047;-80
2022/10/12 01:19:29;;;;;;;6.93;3.25;;;;;;;8.03;43.42;102113.84;5063761;28;20098;-80
2022/10/12 01:22:03;;;;;;;4.50;3.00;;;;;;;8.00;43.32;102116.78;5075566;28;20036;-80
2022/10/12 01:24:51;;;;;;;5.65;3.28;;;;;;;7.99;43.34;102106.84;5083998;28;20089;-80
2022/10/12 01:27:36;;;;;;;6.82;3.67;;;;;;;7.96;43.76;102096.09;5073923;28;20040;-79
2022/10/12 01:30:15;;;;;;;6.00;3.25;;;;;;;7.95;43.89;102103.38;5073867;28;20090;-80
2022/10/12 01:33:03;;;;;;;8.73;4.40;;;;;;;7.94;43.97;102100.75;5092798;28;20047;-81
2022/10/12 01:35:38;;;;;;;6.85;3.80;;;;;;;7.89;43.59;102090.13;5085287;28;20044;-79
2022/10/12 01:38:17;;;;;;;7.20;3.75;;;;;;;7.89;43.59;102081.06;5070906;28;20044;-80
2022/10/12 01:40:51;;;;;;;6.60;3.70;;;;;;;7.88;43.39;102087.47;5069410;28;20041;-80
2022/10/12 01:43:22;;;;;;;6.55;3.55;;;;;;;7.84;43.20;102081.34;5069116;28;20067;-79
2022/10/12 01:45:51;;;;;;;6.35;3.83;;;;;;;7.83;43.71;102079.56;5066294;28;20036;-80
2022/10/12 01:48:19;;;;;;;5.38;3.50;;;;;;;7.82;43.62;102085.97;5089625;28;20086;-80
2022/10/12 01:50:50;;;;;;;5.88;3.40;;;;;;;7.83;43.56;102078.69;5073189;28;20044;-79
2022/10/12 01:53:30;;;;;;;6.78;3.60;;;;;;;7.83;44.03;102075.97;5074181;28;20036;-79
2022/10/12 01:56:08;;;;;;;6.80;3.60;;;;;;;7.81;43.84;102066.97;5087192;28;20170;-80
2022/10/12 01:58:50;;;;;;;7.28;3.60;;;;;;;7.80;43.87;102073.41;5076257;28;20041;-80
2022/10/12 02:01:29;;;;;;;5.72;3.45;;;;;;;7.78;43.92;102064.41;5073790;28;20040;-80
2022/10/12 02:04:07;;;;;;;5.55;3.22;;;;;;;7.75;43.61;102067.34;5066005;28;20253;-80
2022/10/12 02:06:43;;;;;;;6.30;3.60;;;;;;;7.75;43.37;102070.06;5074242;28;20036;-80
2022/10/12 02:09:19;;;;;;;8.30;3.53;;;;;;;7.73;43.62;102074.72;5090351;28;20495;-80
2022/10/12 02:11:51;;;;;;;6.50;3.05;;;;;;;7.71;43.61;102074.78;5066849;28;20049;-80
2022/10/12 02:14:22;;;;;;;5.00;3.20;;;;;;;7.68;43.37;102072.25;5079608;22;20045;-79
2022/10/12 02:16:56;;;;;;;5.60;3.10;;;;;;;7.70;43.77;102075.75;5055011;28;20506;-79
2022/10/12 02:19:28;;;;;;;5.72;3.38;;;;;;;7.67;43.33;102075.06;5070389;28;20043;-80
2022/10/12 02:22:00;;;;;;;6.60;3.50;;;;;;;7.65;43.53;102074.25;5066465;28;20055;-78
2022/10/12 02:24:30;;;;;;;5.32;2.97;;;;;;;7.63;43.40;102071.63;5056581;28;20415;-79
2022/10/12 02:27:00;;;;;;;5.25;3.13;;;;;;;7.63;43.19;102079.78;5064306;28;20040;-79
2022/10/12 02:29:31;;;;;;;8.20;3.75;;;;;;;7.61;43.30;102068.09;5077245;28;20093;-79
2022/10/12 02:32:06;;;;;;;7.60;3.33;;;;;;;7.62;43.88;102068.97;5040797;28;20307;-79
2022/10/12 02:34:38;;;;;;;5.53;3.55;;;;;;;7.60;43.47;102062.75;5079572;28;20036;-79
2022/10/12 02:37:09;;;;;;;5.35;3.10;;;;;;;7.57;43.41;102055.63;5079157;28;20040;-80
2022/10/12 02:39:47;;;;;;;6.03;3.10;;;;;;;7.55;43.77;102055.72;5075846;28;20465;-79
2022/10/12 02:42:22;;;;;;;6.55;3.00;;;;;;;7.55;43.53;102049.38;5070083;28;20046;-78
2022/10/12 02:44:53;;;;;;;6.80;2.95;;;;;;;7.53;43.80;102054.91;5055772;28;20128;-78
2022/10/12 02:47:25;;;;;;;5.43;2.95;;;;;;;7.51;43.72;102043.25;5048931;28;20045;-79
2022/10/12 02:49:55;;;;;;;5.30;3.30;;;;;;;7.48;43.65;102037.06;5079900;28;20050;-79
2022/10/12 02:52:24;;;;;;;5.13;2.85;;;;;;;7.48;43.41;102040.69;5051474;28;20113;-80
2022/10/12 02:54:52;;;;;;;5.45;2.97;;;;;;;7.46;43.33;102034.44;5078265;28;20098;-79
2022/10/12 02:57:20;;;;;;;4.18;3.00;;;;;;;7.45;43.45;102031.78;5073382;28;20040;-79
2022/10/12 02:59:47;;;;;;;4.97;3.05;;;;;;;7.44;43.50;102030.91;5077602;28;20120;-79
2022/10/12 03:02:15;;;;;;;5.68;3.28;;;;;;;7.44;43.75;102019.13;5068715;28;20037;-78
2022/10/12 03:04:44;;;;;;;6.45;3.20;;;;;;;7.44;43.28;102021.84;5080224;28;20422;-79
2022/10/12 03:07:12;;;;;;;6.40;3.25;;;;;;;7.42;43.34;102027.41;5063944;28;20122;-79
2022/10/12 03:09:40;;;;;;;8.38;3.30;;;;;;;7.41;43.44;102022.03;5069621;28;20048;-79
2022/10/12 03:12:08;;;;;;;5.28;3.30;;;;;;;7.39;43.69;102023.97;5072093;28;20037;-79
2022/10/12 03:14:36;;;;;;;8.07;3.60;;;;;;;7.38;43.77;102022.19;5085082;28;20130;-79
2022/10/12 03:17:04;;;;;;;5.78;3.08;;;;;;;7.38;43.72;102023.09;5047109;28;20044;-79
2022/10/12 03:19:32;;;;;;;6.25;2.92;;;;;;;7.35;43.86;102023.28;5073888;28;20482;-79
2022/10/12 03:22:03;;;;;;;6.30;3.30;;;;;;;7.36;43.83;102018.69;5053624;28;20099;-80
2022/10/12 03:24:31;;;;;;;6.05;3.17;;;;;;;7.33;43.89;102024.31;5072159;28;20051;-78
2022/10/12 03:26:58;;;;;;;7.68;3.47;;;;;;;7.31;43.89;102018.94;5083314;28;20044;-79
2022/10/12 03:29:27;;;;;;;6.25;3.60;;;;;;;7.29;43.97;102015.41;5055949;28;20051;-79
2022/10/12 03:31:54;;;;;;;7.43;3.25;;;;;;;7.28;43.92;102019.09;5047618;28;20406;-79
2022/10/12 03:34:22;;;;;;;6.22;3.17;;;;;;;7.27;44.04;102013.78;5059987;28;20094;-79
2022/10/12 03:36:50;;;;;;;4.93;3.22;;;;;;;7.26;43.93;102009.28;5067105;28;20044;-79
2022/10/12 03:39:22;;;;;;;5.25;2.88;;;;;;;7.25;43.88;102008.41;5076887;28;20049;-79
2022/10/12 03:41:49;;;;;;;7.15;2.90;;;;;;;7.23;43.85;102006.72;5060157;28;20507;-79
2022/10/12 03:44:17;;;;;;;6.15;3.00;;;;;;;7.21;43.98;102006.78;5057302;28;20048;-79
2022/10/12 03:46:45;;;;;;;6.05;2.70;;;;;;;7.20;43.80;102013.19;5068833;28;20044;-79
2022/10/12 03:49:13;;;;;;;5.60;2.83;;;;;;;7.19;43.64;102004.16;5080703;28;20491;-79
2022/10/12 03:51:41;;;;;;;4.68;2.97;;;;;;;7.19;43.72;102003.28;5066588;28;20072;-79
2022/10/12 03:54:09;;;;;;;7.03;3.40;;;;;;;7.17;43.91;102010.66;5080760;28;20361;-79
2022/10/12 03:56:38;;;;;;;5.68;2.90;;;;;;;7.16;43.74;102009.78;5090826;28;20470;-77
2022/10/12 03:59:06;;;;;;;4.53;2.80;;;;;;;7.15;43.98;102009.88;5079015;28;20041;-80
2022/10/12 04:01:34;;;;;;;4.85;2.72;;;;;;;7.13;44.08;102009.06;5071904;28;20521;-79
2022/10/12 04:04:02;;;;;;;7.07;2.92;;;;;;;7.11;44.01;102003.69;5075596;28;20086;-78
2022/10/12 04:06:30;;;;;;;6.15;3.00;;;;;;;7.10;44.07;102007.41;5056751;28;20035;-79
2022/10/12 04:08:58;;;;;;;5.80;2.95;;;;;;;7.08;44.04;102003.88;5054443;28;20044;-78
2022/10/12 04:11:25;;;;;;;4.47;2.70;;;;;;;7.06;43.92;101997.63;5076843;28;20064;-78
2022/10/12 04:13:55;;;;;;;4.55;2.70;;;;;;;7.06;44.07;102011.25;5056438;28;20499;-79
2022/10/12 04:16:22;;;;;;;4.63;2.92;;;;;;;7.03;43.91;102002.34;5052281;28;20040;-79
2022/10/12 04:18:55;;;;;;;5.45;3.13;;;;;;;6.99;43.93;102004.38;5064999;28;20103;-79
2022/10/12 04:21:24;;;;;;;4.97;2.72;;;;;;;7.02;44.11;102006.97;5054216;28;20045;-78
2022/10/12 04:23:52;;;;;;;5.43;3.17;;;;;;;6.98;44.02;102018.06;5070231;28;20048;-78
2022/10/12 04:26:20;;;;;;;4.10;2.78;;;;;;;6.96;44.03;102009.97;5076512;28;20113;-79
2022/10/12 04:28:48;;;;;;;5.57;3.35;;;;;;;6.96;44.22;102009.97;5048850;28;20059;-78
2022/10/12 04:31:19;;;;;;;6.75;3.05;;;;;;;6.96;44.42;102006.38;5057163;28;20499;-78
2022/10/12 04:33:47;;;;;;;5.53;3.60;;;;;;;6.93;44.25;102004.72;5078235;28;20050;-78
2022/10/12 04:36:14;;;;;;;5.50;3.35;;;;;;;6.92;44.18;102002.09;5051698;28;20097;-78
2022/10/12 04:38:42;;;;;;;4.25;2.85;;;;;;;6.92;44.05;102004.81;5078235;28;20040;-78
2022/10/12 04:41:10;;;;;;;5.22;2.80;;;;;;;6.91;44.05;102000.31;5082087;28;20066;-79
2022/10/12 04:43:38;;;;;;;4.40;2.70;;;;;;;6.90;44.39;101988.56;5078394;28;20051;-78
2022/10/12 04:46:06;;;;;;;5.78;3.10;;;;;;;6.89;44.42;101994.94;5079418;28;20101;-79
2022/10/12 04:48:35;;;;;;;6.45;3.13;;;;;;;6.89;44.29;101985.91;5077982;28;20508;-77
2022/10/12 04:51:04;;;;;;;7.80;3.35;;;;;;;6.89;44.19;101991.34;5060846;28;20044;-79
2022/10/12 04:53:32;;;;;;;5.75;3.20;;;;;;;6.86;44.39;101992.38;5072972;28;20478;-79
2022/10/12 04:56:03;;;;;;;4.78;2.78;;;;;;;6.88;44.54;101989.59;5049575;28;20078;-78
2022/10/12 04:58:31;;;;;;;5.78;3.25;;;;;;;6.85;44.43;101993.38;5072192;28;20040;-79
2022/10/12 05:00:59;;;;;;;5.07;2.95;;;;;;;6.85;44.46;101993.38;5061753;28;20029;-79
2022/10/12 05:03:27;;;;;;;4.35;2.88;;;;;;;6.84;44.59;101988.00;5075237;28;20044;-78
2022/10/12 05:05:56;;;;;;;4.30;2.95;;;;;;;6.85;44.58;101987.94;5073103;28;20433;-79
2022/10/12 05:08:24;;;;;;;6.85;3.33;;;;;;;6.85;44.56;101987.94;5071015;28;20051;-80
2022/10/12 05:10:52;;;;;;;6.57;2.85;;;;;;;6.86;44.18;101991.53;5068995;28;20498;-79
2022/10/12 05:13:20;;;;;;;7.80;3.53;;;;;;;6.84;44.65;101986.16;5072849;28;20119;-78
2022/10/12 05:15:47;;;;;;;6.28;3.20;;;;;;;6.86;44.56;101992.38;5063339;28;20040;-78
2022/10/12 05:18:16;;;;;;;6.95;3.22;;;;;;;6.85;44.76;101992.50;5077774;28;20072;-78
2022/10/12 05:20:44;;;;;;;5.55;3.53;;;;;;;6.85;44.64;101985.22;5069134;28;20059;-78
2022/10/12 05:23:13;;;;;;;5.90;3.10;;;;;;;6.87;44.79;101988.72;5070161;28;20048;-78
2022/10/12 05:25:41;;;;;;;5.97;3.28;;;;;;;6.86;44.86;101992.38;5070826;28;20778;-78
2022/10/12 05:28:09;;;;;;;5.88;3.55;;;;;;;6.86;45.12;101988.81;5084579;28;20468;-78
2022/10/12 05:30:38;;;;;;;6.03;3.28;;;;;;;6.86;44.77;101988.81;5069343;28;20048;-80
2022/10/12 05:33:06;;;;;;;6.03;3.20;;;;;;;6.86;44.51;101980.66;5067412;28;20055;-78
2022/10/12 05:35:34;;;;;;;5.60;3.60;;;;;;;6.86;44.85;101983.38;5073286;28;20800;-80
2022/10/12 05:38:02;;;;;;;6.22;3.40;;;;;;;6.85;44.84;101993.38;5077841;28;20063;-79
2022/10/12 05:40:31;;;;;;;7.55;3.30;;;;;;;6.87;44.98;101998.72;5052585;28;20052;-79
2022/10/12 05:42:58;;;;;;;5.30;3.60;;;;;;;6.85;44.89;101998.81;5073016;28;20037;-78
2022/10/12 05:45:26;;;;;;;6.22;3.47;;;;;;;6.84;44.68;101990.72;5077918;28;20777;-79
2022/10/12 05:47:54;;;;;;;8.25;3.63;;;;;;;6.84;44.93;101997.06;5072352;28;20036;-79
2022/10/12 05:50:22;;;;;;;6.45;3.40;;;;;;;6.84;44.89;102004.34;5081783;28;20139;-78
2022/10/12 05:52:50;;;;;;;9.57;3.70;;;;;;;6.81;44.91;101998.09;5080667;28;20036;-78
2022/10/12 05:55:18;;;;;;;7.70;3.25;;;;;;;6.81;44.90;102006.25;5062554;28;20045;-79
2022/10/12 05:57:48;;;;;;;6.85;3.40;;;;;;;6.81;44.97;102002.66;5070751;28;20284;-78
2022/10/12 06:00:19;;;;;;;6.35;3.80;;;;;;;6.78;44.81;102003.69;5080859;28;20047;-79
2022/10/12 06:02:47;;;;;;;5.68;3.58;;;;;;;6.77;44.75;102007.41;5060852;28;20041;-79
2022/10/12 06:05:15;;;;;;;6.85;3.92;;;;;;;6.76;44.93;102011.06;5062840;28;20048;-78
2022/10/12 06:07:43;;;;;;;6.15;3.88;;;;;;;6.76;44.94;102010.19;5070285;28;20042;-80
2022/10/12 06:10:11;;;;;;;6.85;3.80;;;;;;;6.75;44.83;102005.72;5077032;28;20387;-80
2022/10/12 06:12:39;;;;;;;10.07;4.10;;;;;;;6.74;44.92;101996.66;5052447;28;20434;-80
2022/10/12 06:15:10;;;;;;;8.75;3.97;;;;;;;6.74;45.20;101999.38;5055416;28;20553;-80
2022/10/12 06:17:38;;;;;;;6.30;3.60;;;;;;;6.72;45.15;101998.56;5062810;28;20036;-79
2022/10/12 06:20:11;;;;;;;7.68;3.95;;;;;;;6.73;45.37;102003.03;5036907;28;20083;-80
2022/10/12 06:22:40;;;;;;;8.77;4.00;;;;;;;6.71;44.86;102001.34;5062909;28;20455;-80
2022/10/12 06:25:08;;;;;;;6.85;4.10;;;;;;;6.70;45.05;102011.34;5063136;28;20499;-79
2022/10/12 06:27:36;;;;;;;7.63;3.92;;;;;;;6.70;45.06;102007.75;5055611;28;20039;-80
2022/10/12 06:30:06;;;;;;;6.53;3.90;;;;;;;6.69;45.19;102001.44;5063894;28;20028;-80
2022/10/12 06:32:36;;;;;;;7.35;3.90;;;;;;;6.71;45.34;102010.38;5059738;28;20090;-81
2022/10/12 06:35:05;;;;;;;6.70;3.67;;;;;;;6.72;45.74;102014.88;5071543;28;20045;-81
2022/10/12 06:37:32;;;;;;;6.38;4.03;;;;;;;6.76;46.33;102013.78;5076814;28;20056;-80
2022/10/12 06:40:20;;;;;;;6.72;3.50;;;;;;;6.86;47.05;102010.59;5084351;28;20047;-81
2022/10/12 06:42:48;;;;;;;6.25;4.07;;;;;;;7.00;47.11;102013.44;5057523;28;20080;-81
2022/10/12 06:48:15;;;;;;;7.90;3.80;;;;;;;7.43;47.61;102012.81;5063132;28;20568;-80
2022/10/12 06:50:50;;;;;;;7.15;3.50;;;;;;;7.71;47.72;102013.97;5025238;28;20041;-80
2022/10/12 06:53:24;;;;;;;6.93;3.70;;;;;;;7.98;47.52;102017.84;5073477;28;20036;-80
2022/10/12 06:55:52;;;;;;;5.53;3.25;;;;;;;8.26;47.43;102014.38;5060180;28;20341;-80
2022/10/12 06:58:23;;;;;;;7.22;3.53;;;;;;;8.55;47.02;102012.63;5088089;28;20111;-81
2022/10/12 07:00:52;;;;;;;5.95;3.20;;;;;;;8.83;46.72;102022.75;5068987;28;20036;-79
2022/10/12 07:03:21;;;;;;;6.47;3.40;;;;;;;9.11;46.06;102020.03;5081400;28;20052;-80
2022/10/12 07:05:51;;;;;;;6.15;3.08;;;;;;;9.32;45.80;102013.22;5081040;28;20067;-79
2022/10/12 07:08:18;;;;;;;7.15;3.83;;;;;;;9.53;45.39;102012.81;5071309;28;20094;-80
2022/10/12 07:10:46;;;;;;;5.70;3.83;;;;;;;9.73;45.09;102013.28;5058645;28;20105;-79
2022/10/12 07:13:14;;;;;;;6.22;4.20;;;;;;;9.94;45.02;102008.25;5060296;28;20076;-81
2022/10/12 07:15:42;;;;;;;7.38;3.92;;;;;;;10.15;44.64;102008.69;5077385;28;20515;-80
2022/10/12 07:18:14;;;;;;;8.20;3.80;;;;;;;10.33;44.61;102007.41;5064411;28;20045;-82
2022/10/12 07:20:44;;;;;;;8.30;3.92;;;;;;;10.55;44.03;102007.72;5084138;28;20519;-81
2022/10/12 07:23:14;;;;;;;7.13;3.92;;;;;;;10.75;44.19;102003.56;5078364;28;20570;-81
2022/10/12 07:25:49;;;;;;;6.50;3.47;;;;;;;11.01;42.56;101998.13;5067721;28;20418;-81
2022/10/12 07:28:18;;;;;;;7.45;3.90;;;;;;;11.19;43.48;101994.06;5088746;28;20521;-81
2022/10/12 07:30:46;;;;;;;6.30;3.80;;;;;;;11.40;43.27;101997.09;5074716;28;20457;-82
2022/10/12 07:33:14;;;;;;;6.28;4.10;;;;;;;11.59;42.46;102005.72;5065485;28;20067;-80
2022/10/12 07:35:43;;;;;;;7.15;4.10;;;;;;;11.76;41.44;101999.91;5064678;28;20555;-80
2022/10/12 07:38:31;;;;;;;7.60;3.53;;;;;;;11.90;41.04;102001.59;5065770;28;20113;-80
2022/10/12 07:41:00;;;;;;;9.52;3.65;;;;;;;11.99;40.90;101998.16;5068021;28;20036;-80
2022/10/12 07:43:28;;;;;;;6.07;3.35;;;;;;;12.07;40.68;101993.84;5074151;28;20071;-80
2022/10/12 07:46:00;;;;;;;5.78;3.40;;;;;;;12.10;40.24;101998.25;5070672;28;20040;-82
2022/10/12 07:48:28;;;;;;;5.45;3.25;;;;;;;12.13;39.70;101994.41;5080791;28;20082;-80
2022/10/12 07:51:03;;;;;;;5.80;3.03;;;;;;;12.18;39.30;102001.28;5069052;28;20071;-80
2022/10/12 07:53:50;;;;;;;6.35;3.30;;;;;;;12.14;39.63;101994.25;5075388;28;20048;-82
2022/10/12 07:56:18;;;;;;;6.55;2.80;;;;;;;12.11;39.53;101991.75;5080006;28;20044;-82
2022/10/12 07:59:01;;;;;;;9.07;3.22;;;;;;;12.13;39.88;101993.38;5060098;28;20059;-81
2022/10/12 08:01:30;;;;;;;5.13;2.95;;;;;;;12.13;39.60;101992.50;5030062;28;20082;-80
2022/10/12 08:03:59;;;;;;;6.68;3.40;;;;;;;12.15;39.85;102000.63;5056022;28;20045;-80
2022/10/12 08:06:32;;;;;;;6.97;2.97;;;;;;;12.15;39.33;101997.88;5075109;28;20171;-80
2022/10/12 08:09:06;;;;;;;4.97;2.92;;;;;;;12.16;40.01;102007.88;5066161;28;20048;-80
2022/10/12 08:11:38;;;;;;;5.10;2.97;;;;;;;12.19;38.84;102008.53;5057950;28;20049;-81
2022/10/12 08:14:07;;;;;;;6.13;2.78;;;;;;;12.14;39.53;102010.72;5071363;23;20056;-70
2022/10/12 08:16:35;;;;;;;6.65;3.00;;;;;;;12.15;39.11;102009.72;5035108;28;20045;-69
2022/10/12 08:19:03;;;;;;;7.22;3.08;;;;;;;12.11;39.32;102000.00;5053246;28;20041;-70
2022/10/12 08:21:32;;;;;;;5.40;2.80;;;;;;;12.09;39.42;102001.97;5047264;28;20111;-71
2022/10/12 08:24:00;;;;;;;6.05;2.80;;;;;;;12.04;39.56;101995.97;5049326;28;20094;-70
2022/10/12 08:26:28;;;;;;;5.57;2.38;;;;;;;12.02;39.64;102001.56;5044572;28;20038;-70
2022/10/12 08:28:56;;;;;;;4.97;2.50;;;;;;;12.00;39.86;101988.94;5037116;28;21555;-71
2022/10/12 08:31:24;;;;;;;6.22;2.70;;;;;;;11.99;39.37;101992.69;5053984;28;20103;-70
2022/10/12 08:33:51;;;;;;;5.97;2.60;;;;;;;11.97;39.34;101989.16;5038069;28;20489;-70
2022/10/12 08:36:19;;;;;;;4.70;2.28;;;;;;;11.97;39.83;101980.94;5041455;28;20041;-70
2022/10/12 08:38:53;;;;;;;6.10;2.60;;;;;;;12.01;39.75;101985.22;5045231;28;20049;-70
2022/10/12 08:41:37;;;;;;;4.40;2.33;;;;;;;12.03;39.62;101983.25;5041457;28;20093;-69
2022/10/12 08:44:17;;;;;;;;;;;;;;;11.76;40.27;101988.06;5045091;28;20063;-70
2022/10/12 08:46:45;;;;;;;5.38;2.40;;;;;;;12.02;40.23;101985.09;5039241;28;19924;-70
2022/10/12 08:49:18;;;;;;;6.43;2.42;;;;;;;12.12;39.89;101982.53;5035025;28;20115;-70
2022/10/12 08:51:49;;;;;;;6.40;2.80;;;;;;;12.16;39.58;101975.81;5033285;28;20521;-70
2022/10/12 08:54:20;;;;;;;5.43;2.20;;;;;;;12.19;39.56;101977.44;5046499;28;20036;-69
2022/10/12 08:56:49;;;;;;;4.50;2.35;;;;;;;12.23;39.68;101977.09;5049256;28;20096;-70
2022/10/12 08:59:18;;;;;;;4.43;2.83;;;;;;;12.29;39.77;101984.88;5038431;28;20064;-69
2022/10/12 09:01:59;;;;;;;5.50;2.50;;;;;;;12.36;39.22;101986.16;5042431;28;20053;-69
2022/10/12 09:04:39;;;;;;;4.80;2.33;;;;;;;12.42;38.99;101984.78;5045323;28;20051;-69
2022/10/12 09:07:12;;;;;;;5.82;2.60;;;;;;;12.47;38.95;101986.16;5043413;28;20049;-70
2022/10/12 09:09:56;;;;;;;6.05;2.40;;;;;;;12.54;39.30;101986.59;5054524;28;20079;-69
2022/10/12 09:12:37;;;;;;;4.75;2.17;;;;;;;12.62;38.87;101991.50;5037488;28;20044;-70
2022/10/12 09:15:14;;;;;;;5.13;2.83;;;;;;;12.68;39.07;101988.28;5038853;28;20505;-70
2022/10/12 09:17:46;;;;;;;6.35;2.50;;;;;;;12.73;38.95;101992.41;5044047;28;20037;-69
2022/10/12 09:20:19;;;;;;;6.03;2.80;;;;;;;12.79;38.93;101991.91;5049516;28;20049;-69
2022/10/12 09:22:50;;;;;;;5.00;2.42;;;;;;;12.88;39.12;101990.31;5042213;28;20137;-69
2022/10/12 09:25:24;;;;;;;5.22;2.50;;;;;;;12.96;39.30;101985.06;5043723;28;20041;-69
2022/10/12 09:27:52;;;;;;;4.70;2.67;;;;;;;13.01;39.55;101993.84;5038374;28;20041;-70
2022/10/12 09:30:21;;;;;;;5.80;2.63;;;;;;;13.09;39.24;101996.84;5040209;28;20040;-70
2022/10/12 09:33:14;;;;;;;6.13;2.60;;;;;;;13.18;38.29;101990.63;5053399;28;20048;-70
2022/10/12 09:35:44;;;;;;;4.75;2.58;;;;;;;13.23;39.21;101996.59;5044853;28;20059;-70
2022/10/12 09:38:12;;;;;;;4.85;2.38;;;;;;;13.30;38.87;101994.22;5058267;28;20041;-70
2022/10/12 09:40:42;;;;;;;5.82;2.40;;;;;;;13.38;39.05;101993.59;5039995;28;20040;-70
2022/10/12 09:43:11;;;;;;;3.63;1.92;;;;;;;13.42;39.07;101997.84;5035216;28;20466;-69
2022/10/12 09:45:39;;;;;;;5.93;2.28;;;;;;;13.48;38.91;101998.22;5058521;28;20097;-70
2022/10/12 09:48:21;;;;;;;4.97;2.45;;;;;;;13.55;38.29;102004.09;5047799;28;20144;-70
2022/10/12 09:50:52;;;;;;;5.90;2.40;;;;;;;13.58;38.70;101992.88;5043432;28;20432;-70
2022/10/12 09:53:31;;;;;;;4.30;2.30;;;;;;;13.63;38.22;101991.50;5058935;28;20131;-70
2022/10/12 09:56:07;;;;;;;4.65;2.05;;;;;;;13.68;38.19;101990.25;5042371;28;20045;-70
2022/10/12 09:58:48;;;;;;;4.82;2.58;;;;;;;13.72;38.10;101984.34;5043827;28;20079;-69
2022/10/12 10:01:23;;;;;;;3.67;2.10;;;;;;;13.76;38.22;101980.34;5060261;28;20037;-69
2022/10/12 10:04:08;;;;;;;4.70;2.50;;;;;;;13.79;38.29;101980.09;5042838;28;20037;-70
2022/10/12 10:06:38;;;;;;;6.22;2.40;;;;;;;13.83;38.56;101976.09;5043465;28;20045;-70
2022/10/12 10:09:06;;;;;;;4.45;2.08;;;;;;;13.89;38.12;101974.69;5031840;28;20418;-71
2022/10/12 10:11:36;;;;;;;6.05;2.40;;;;;;;13.95;38.50;101977.78;5038906;28;20460;-70
2022/10/12 10:14:03;;;;;;;5.65;2.42;;;;;;;13.98;38.46;101972.03;5061181;28;20083;-70
2022/10/12 10:16:31;;;;;;;5.75;2.70;;;;;;;14.02;38.51;101976.25;5041478;28;20387;-70
2022/10/12 10:19:01;;;;;;;5.38;2.25;;;;;;;14.10;38.55;101981.16;5042370;28;20091;-70
2022/10/12 10:21:33;;;;;;;5.97;2.40;;;;;;;14.16;38.41;101988.00;5041875;28;20041;-70
2022/10/12 10:24:02;;;;;;;6.10;2.53;;;;;;;14.22;38.44;101981.97;5054286;28;20053;-70
2022/10/12 10:26:50;;;;;;;6.75;2.78;;;;;;;14.27;38.08;101983.31;5046492;28;20051;-70
2022/10/12 10:29:30;;;;;;;6.45;2.65;;;;;;;14.34;37.62;101984.56;5043181;28;20572;-70
2022/10/12 10:32:25;;;;;;;6.03;2.22;;;;;;;14.37;37.72;101983.41;5036324;28;20053;-70
2022/10/12 10:35:02;;;;;;;3.92;2.15;;;;;;;14.45;37.39;101980.84;5064036;28;20045;-70
2022/10/12 10:37:30;;;;;;;5.95;2.80;;;;;;;14.49;37.48;101982.38;5036845;28;20053;-70
2022/10/12 10:39:59;;;;;;;5.18;2.60;;;;;;;14.55;37.99;101987.34;5041719;28;20041;-70
2022/10/12 10:42:30;;;;;;;4.32;2.67;;;;;;;14.60;37.63;101978.72;5040926;28;20046;-70
2022/10/12 10:45:02;;;;;;;3.83;2.10;;;;;;;14.65;37.17;101973.66;5044978;28;20033;-70
2022/10/12 10:47:32;;;;;;;4.93;2.35;;;;;;;14.70;37.46;101966.72;5038031;28;20073;-70
2022/10/12 10:50:03;;;;;;;4.55;2.33;;;;;;;14.74;37.31;101976.50;5043038;28;20326;-70
2022/10/12 10:52:33;;;;;;;4.97;2.28;;;;;;;14.81;37.92;101970.44;5036674;28;20054;-71
2022/10/12 10:55:25;;;;;;;5.20;2.38;;;;;;;14.86;36.74;101977.28;5046399;28;20050;-71
2022/10/12 10:57:59;;;;;;;5.63;2.95;;;;;;;14.94;36.86;101979.34;5043716;28;20083;-71
2022/10/12 11:00:32;;;;;;;4.70;2.60;;;;;;;15.01;36.73;101975.06;5020003;28;20062;-75
2022/10/12 11:03:14;;;;;;;5.57;2.40;;;;;;;15.04;36.99;101969.25;5045176;28;20049;-75
2022/10/12 11:05:45;;;;;;;5.90;2.60;;;;;;;15.08;36.97;101968.88;5029510;28;20052;-75
2022/10/12 11:08:19;;;;;;;5.60;2.50;;;;;;;15.14;36.85;101968.31;5035044;28;20099;-75
2022/10/12 11:10:52;;;;;;;4.70;2.40;;;;;;;15.20;36.54;101963.25;5042213;28;20045;-75
2022/10/12 11:13:25;;;;;;;4.15;2.28;;;;;;;15.25;36.64;101961.84;5034270;28;20384;-75
2022/10/12 11:15:58;;;;;;;4.57;2.60;;;;;;;15.30;36.74;101959.53;5038535;28;20373;-75
2022/10/12 11:18:33;;;;;;;4.63;2.40;;;;;;;15.39;36.87;101958.72;5063613;28;20053;-75
2022/10/12 11:21:07;;;;;;;4.75;2.42;;;;;;;15.46;36.63;101957.16;5020986;28;20040;-75
2022/10/12 11:23:42;;;;;;;5.15;2.50;;;;;;;15.56;36.76;101954.44;5047990;28;20045;-75
2022/10/12 11:26:18;;;;;;;7.00;2.45;;;;;;;15.64;36.43;101939.94;5015799;28;20124;-75
2022/10/12 11:28:46;;;;;;;3.92;2.10;;;;;;;15.69;36.81;101941.25;5036157;28;20533;-75
2022/10/12 11:31:20;;;;;;;4.40;2.75;;;;;;;15.81;36.13;101937.38;5045128;28;20049;-75
2022/10/12 11:33:49;;;;;;;5.63;2.58;;;;;;;15.88;36.96;101937.66;5056481;28;20042;-75
2022/10/12 11:36:22;;;;;;;5.13;2.72;;;;;;;15.99;36.58;101928.38;5050278;28;20045;-75
2022/10/12 11:38:53;;;;;;;5.60;2.85;;;;;;;16.05;36.48;101925.03;5043524;28;20215;-75
2022/10/12 11:41:29;;;;;;;4.95;2.92;;;;;;;16.18;36.32;101925.63;5035375;28;20045;-75
2022/10/12 11:44:06;;;;;;;4.97;2.50;;;;;;;16.26;36.08;101923.03;5046581;28;20124;-75
2022/10/12 11:46:42;;;;;;;4.72;2.38;;;;;;;16.35;35.90;101918.50;5045743;28;20123;-75
2022/10/12 11:49:18;;;;;;;5.97;2.55;;;;;;;16.46;35.80;101919.25;5045832;28;20040;-75
2022/10/12 11:51:48;;;;;;;5.43;2.60;;;;;;;16.53;36.33;101914.00;5028581;28;20095;-75
2022/10/12 11:54:25;;;;;;;5.97;2.78;;;;;;;16.62;35.31;101915.88;5037545;28;20048;-75